Time;durP1;ratioP1;P1;durP2;ratioP2;P2;SDS_P1;SDS_P2;PMS_P1;PMS_P2;Temp;Humidity;BMP_temperature;BMP_pressure;BME280_temperature;BME280_humidity;BME280_pressure;Samples;Min_cycle;Max_cycle;Signal;HPM_P1;HPM_P2
2021/09/25 00:00:29;;;;;;;;;25.00;22.33;;;;;;;;5095642;27;45730;-84
2021/09/25 00:02:55;;;;;;;;;28.50;24.00;;;;;;;;5093442;27;46613;-83
2021/09/25 00:05:21;;;;;;;;;26.50;23.75;;;;;;;;5088696;27;45480;-83
2021/09/25 00:07:47;;;;;;;;;26.50;22.50;;;;;;;;5092873;27;45327;-83
2021/09/25 00:10:12;;;;;;;;;27.67;24.33;;;;;;;;5090638;27;45902;-84
2021/09/25 00:12:37;;;;;;;;;28.33;25.00;;;;;;;;5093532;27;46397;-83
2021/09/25 00:15:03;;;;;;;;;31.50;27.25;;;;;;;;5094872;27;45583;-83
2021/09/25 00:17:28;;;;;;;;;29.25;27.25;;;;;;;;5090392;27;45613;-84
2021/09/25 00:19:53;;;;;;;;;26.67;22.33;;;;;;;;5094340;27;45439;-83
2021/09/25 00:22:19;;;;;;;;;30.33;26.00;;;;;;;;5092745;27;47257;-83
2021/09/25 00:24:44;;;;;;;;;27.33;23.00;;;;;;;;5092935;27;46230;-84
2021/09/25 00:27:09;;;;;;;;;21.00;20.33;;;;;;;;5091227;27;45409;-84
2021/09/25 00:29:34;;;;;;;;;28.33;24.00;;;;;;;;5089801;27;45628;-83
2021/09/25 00:32:00;;;;;;;;;23.33;21.67;;;;;;;;5090816;27;46092;-84
2021/09/25 00:34:25;;;;;;;;;21.75;21.50;;;;;;;;5091986;27;45592;-84
2021/09/25 00:36:50;;;;;;;;;29.25;23.50;;;;;;;;5089882;27;45527;-84
2021/09/25 00:39:16;;;;;;;;;26.00;22.33;;;;;;;;5093329;27;45315;-83
2021/09/25 00:41:41;;;;;;;;;27.25;24.50;;;;;;;;5090918;27;45422;-83
2021/09/25 00:44:06;;;;;;;;;22.67;20.33;;;;;;;;5090184;27;45523;-84
2021/09/25 00:46:33;;;;;;;;;26.50;23.00;;;;;;;;5095305;27;45904;-84
2021/09/25 00:48:58;;;;;;;;;25.00;23.25;;;;;;;;5091434;27;45454;-83
2021/09/25 00:51:23;;;;;;;;;22.33;22.33;;;;;;;;5092404;27;46268;-84
2021/09/25 00:53:48;;;;;;;;;29.75;25.50;;;;;;;;5090063;27;45562;-84
2021/09/25 00:56:14;;;;;;;;;26.00;23.25;;;;;;;;5091499;27;45622;-83
2021/09/25 00:58:41;;;;;;;;;29.00;24.25;;;;;;;;5094026;27;45719;-84
2021/09/25 01:01:06;;;;;;;;;22.50;19.50;;;;;;;;5094615;27;47513;-83
2021/09/25 01:03:32;;;;;;;;;26.75;23.00;;;;;;;;5090828;27;45489;-84
2021/09/25 01:05:57;;;;;;;;;27.75;22.00;;;;;;;;5089953;27;45497;-83
2021/09/25 01:08:23;;;;;;;;;26.00;24.00;;;;;;;;5086398;27;45472;-83
2021/09/25 01:10:49;;;;;;;;;27.75;21.25;;;;;;;;5088625;27;45801;-84
2021/09/25 01:13:14;;;;;;;;;19.25;17.50;;;;;;;;5092447;27;45764;-83
2021/09/25 01:15:40;;;;;;;;;24.67;22.00;;;;;;;;5092659;27;45620;-83
2021/09/25 01:18:05;;;;;;;;;26.67;23.67;;;;;;;;5090463;27;45571;-83
2021/09/25 01:20:30;;;;;;;;;27.00;20.33;;;;;;;;5090351;27;45592;-82
2021/09/25 01:22:55;;;;;;;;;23.00;23.00;;;;;;;;5094159;27;45427;-83
2021/09/25 01:25:21;;;;;;;;;24.50;22.50;;;;;;;;5095370;27;45596;-83
2021/09/25 01:27:46;;;;;;;;;26.67;26.67;;;;;;;;5090758;27;45635;-83
2021/09/25 01:30:13;;;;;;;;;32.33;27.00;;;;;;;;5093746;27;45609;-83
2021/09/25 01:32:39;;;;;;;;;27.25;25.00;;;;;;;;5089747;27;45418;-84
2021/09/25 01:35:05;;;;;;;;;22.50;21.50;;;;;;;;5090348;27;45470;-84
2021/09/25 01:37:30;;;;;;;;;25.75;24.00;;;;;;;;5096106;27;45623;-84
2021/09/25 01:39:56;;;;;;;;;26.00;23.00;;;;;;;;5093145;27;47386;-83
2021/09/25 01:42:21;;;;;;;;;29.67;20.67;;;;;;;;5092932;27;45476;-83
2021/09/25 01:44:48;;;;;;;;;22.33;22.33;;;;;;;;5089299;27;45512;-84
2021/09/25 01:47:13;;;;;;;;;25.00;22.00;;;;;;;;5094296;27;45688;-84
2021/09/25 01:49:38;;;;;;;;;27.33;20.00;;;;;;;;5093698;27;47528;-83
2021/09/25 01:52:04;;;;;;;;;24.75;20.50;;;;;;;;5094921;27;46076;-83
2021/09/25 01:54:29;;;;;;;;;22.75;19.25;;;;;;;;5096440;27;45532;-84
2021/09/25 01:56:54;;;;;;;;;21.25;17.75;;;;;;;;5093990;27;45627;-83
2021/09/25 01:59:19;;;;;;;;;25.33;22.00;;;;;;;;5093995;27;48402;-84
2021/09/25 02:01:44;;;;;;;;;20.00;19.33;;;;;;;;5095862;27;45774;-84
2021/09/25 02:04:10;;;;;;;;;23.00;19.67;;;;;;;;5096344;27;45633;-84
2021/09/25 02:06:35;;;;;;;;;25.67;21.33;;;;;;;;5095235;27;45567;-84
2021/09/25 02:09:00;;;;;;;;;26.00;22.00;;;;;;;;5094453;27;45433;-84
2021/09/25 02:11:25;;;;;;;;;29.33;22.33;;;;;;;;5094119;27;45564;-84
2021/09/25 02:13:51;;;;;;;;;23.00;21.00;;;;;;;;5097668;27;45461;-83
2021/09/25 02:16:16;;;;;;;;;22.25;19.50;;;;;;;;5095331;27;45675;-84
2021/09/25 02:18:42;;;;;;;;;20.50;18.00;;;;;;;;5096085;27;46520;-84
2021/09/25 02:21:08;;;;;;;;;27.50;22.50;;;;;;;;5094856;27;45556;-83
2021/09/25 02:23:33;;;;;;;;;22.00;20.25;;;;;;;;5094148;27;45661;-84
2021/09/25 02:26:00;;;;;;;;;19.00;16.25;;;;;;;;5093704;27;45815;-83
2021/09/25 02:28:26;;;;;;;;;22.25;19.75;;;;;;;;5093290;27;45511;-84
2021/09/25 02:30:52;;;;;;;;;21.00;17.75;;;;;;;;5097813;27;45425;-84
2021/09/25 02:33:17;;;;;;;;;23.50;18.25;;;;;;;;5095453;27;45507;-83
2021/09/25 02:35:42;;;;;;;;;23.33;18.00;;;;;;;;5094457;27;45384;-82
2021/09/25 02:38:08;;;;;;;;;22.33;18.67;;;;;;;;5093678;27;48593;-83
2021/09/25 02:40:34;;;;;;;;;21.00;19.00;;;;;;;;5092713;27;45896;-83
2021/09/25 02:42:59;;;;;;;;;23.75;21.50;;;;;;;;5095146;27;46704;-83
2021/09/25 02:45:24;;;;;;;;;26.67;22.00;;;;;;;;5095210;27;45762;-83
2021/09/25 02:47:49;;;;;;;;;24.00;21.33;;;;;;;;5092680;27;46264;-83
2021/09/25 02:50:15;;;;;;;;;24.00;18.25;;;;;;;;5094744;27;45359;-84
2021/09/25 02:52:40;;;;;;;;;22.75;18.00;;;;;;;;5099724;27;46631;-83
2021/09/25 02:55:07;;;;;;;;;25.33;23.00;;;;;;;;5093443;27;45789;-84
2021/09/25 02:57:32;;;;;;;;;16.50;16.25;;;;;;;;5093710;27;45605;-84
2021/09/25 02:59:57;;;;;;;;;20.75;19.50;;;;;;;;5094749;27;45820;-83
2021/09/25 03:02:23;;;;;;;;;21.50;19.25;;;;;;;;5093506;27;48979;-83
2021/09/25 03:04:48;;;;;;;;;27.00;24.00;;;;;;;;5095718;27;45443;-82
2021/09/25 03:07:13;;;;;;;;;28.00;21.00;;;;;;;;5095866;27;45698;-83
2021/09/25 03:09:38;;;;;;;;;23.67;22.33;;;;;;;;5095671;27;45675;-84
2021/09/25 03:12:03;;;;;;;;;20.33;18.33;;;;;;;;5093792;27;45846;-83
2021/09/25 03:14:29;;;;;;;;;22.50;18.50;;;;;;;;5094369;27;45613;-83
2021/09/25 03:16:54;;;;;;;;;23.67;21.67;;;;;;;;5093843;27;48048;-83
2021/09/25 03:19:19;;;;;;;;;25.25;20.25;;;;;;;;5106735;27;46199;-83
2021/09/25 03:21:45;;;;;;;;;21.67;19.00;;;;;;;;5093054;27;46818;-83
2021/09/25 03:24:10;;;;;;;;;26.00;20.00;;;;;;;;5095210;27;45477;-84
2021/09/25 03:26:35;;;;;;;;;21.00;18.33;;;;;;;;5091504;27;48268;-81
2021/09/25 03:29:01;;;;;;;;;20.00;18.25;;;;;;;;5096471;27;45351;-82
2021/09/25 03:31:26;;;;;;;;;21.67;16.00;;;;;;;;5096467;27;45527;-84
2021/09/25 03:33:51;;;;;;;;;22.33;20.67;;;;;;;;5095745;27;45394;-84
2021/09/25 03:36:16;;;;;;;;;25.00;23.50;;;;;;;;5092423;27;48249;-82
2021/09/25 03:38:42;;;;;;;;;23.75;20.00;;;;;;;;5091759;27;45616;-83
2021/09/25 03:41:07;;;;;;;;;27.00;21.67;;;;;;;;5094986;27;45396;-83
2021/09/25 03:43:33;;;;;;;;;24.25;23.25;;;;;;;;5095893;27;45900;-83
2021/09/25 03:45:58;;;;;;;;;26.75;22.25;;;;;;;;5093702;27;46361;-83
2021/09/25 03:48:23;;;;;;;;;27.75;24.75;;;;;;;;5096119;27;45563;-84
2021/09/25 03:50:49;;;;;;;;;26.75;21.25;;;;;;;;5093520;27;45651;-84
2021/09/25 03:53:14;;;;;;;;;21.00;19.00;;;;;;;;5093555;27;45537;-84
2021/09/25 03:55:39;;;;;;;;;19.00;16.75;;;;;;;;5096509;27;47170;-84
2021/09/25 03:58:04;;;;;;;;;24.33;19.00;;;;;;;;5094150;27;45632;-83
2021/09/25 04:00:30;;;;;;;;;23.75;22.00;;;;;;;;5092472;27;45429;-83
2021/09/25 04:02:56;;;;;;;;;24.33;23.00;;;;;;;;5082439;27;45393;-83
2021/09/25 04:05:21;;;;;;;;;22.50;19.25;;;;;;;;5084545;27;46155;-84
2021/09/25 04:07:47;;;;;;;;;21.50;21.00;;;;;;;;5096556;27;45596;-84
2021/09/25 04:10:13;;;;;;;;;19.00;17.50;;;;;;;;5095849;27;45508;-83
2021/09/25 04:12:38;;;;;;;;;19.75;17.75;;;;;;;;5096651;27;45521;-84
2021/09/25 04:15:05;;;;;;;;;20.25;17.50;;;;;;;;5090913;27;45486;-83
2021/09/25 04:17:30;;;;;;;;;17.25;16.00;;;;;;;;5091407;27;46085;-84
2021/09/25 04:19:55;;;;;;;;;21.33;18.67;;;;;;;;5095885;27;45561;-83
2021/09/25 04:22:20;;;;;;;;;24.00;19.33;;;;;;;;5098610;27;46064;-83
2021/09/25 04:24:45;;;;;;;;;23.00;22.00;;;;;;;;5096252;27;48415;-83
2021/09/25 04:27:11;;;;;;;;;23.00;16.67;;;;;;;;5092720;27;45869;-83
2021/09/25 04:29:36;;;;;;;;;24.25;19.25;;;;;;;;5091196;27;45430;-83
2021/09/25 04:32:01;;;;;;;;;23.33;19.00;;;;;;;;5099762;27;45770;-83
2021/09/25 04:34:28;;;;;;;;;22.50;19.25;;;;;;;;5092371;27;45327;-83
2021/09/25 04:36:53;;;;;;;;;24.50;22.25;;;;;;;;5100129;27;45905;-84
2021/09/25 04:39:18;;;;;;;;;25.33;20.33;;;;;;;;5096566;27;45514;-83
2021/09/25 04:41:44;;;;;;;;;22.00;19.33;;;;;;;;5095899;27;45553;-83
2021/09/25 04:44:14;;;;;;;;;21.00;20.00;;;;;;;;5091091;27;47532;-83
2021/09/25 04:46:39;;;;;;;;;18.75;18.50;;;;;;;;5094375;27;45491;-83
2021/09/25 04:49:04;;;;;;;;;20.67;18.67;;;;;;;;5097585;27;45451;-83
2021/09/25 04:51:29;;;;;;;;;19.00;16.00;;;;;;;;5093629;27;46255;-83
2021/09/25 04:53:56;;;;;;;;;22.33;20.67;;;;;;;;5089614;27;46085;-83
2021/09/25 04:56:21;;;;;;;;;20.50;16.25;;;;;;;;5095412;27;45916;-83
2021/09/25 04:58:46;;;;;;;;;19.67;17.67;;;;;;;;5097106;27;45409;-84
2021/09/25 05:01:11;;;;;;;;;21.67;15.33;;;;;;;;5095548;27;45551;-83
2021/09/25 05:03:36;;;;;;;;;18.50;15.50;;;;;;;;5090783;27;45939;-83
2021/09/25 05:06:02;;;;;;;;;22.00;19.00;;;;;;;;5094553;27;45450;-83
2021/09/25 05:08:27;;;;;;;;;21.75;17.50;;;;;;;;5088933;27;45522;-84
2021/09/25 05:10:52;;;;;;;;;20.67;18.33;;;;;;;;5093267;27;45415;-83
2021/09/25 05:13:17;;;;;;;;;21.67;20.67;;;;;;;;5090067;27;48760;-84
2021/09/25 05:15:43;;;;;;;;;30.00;21.00;;;;;;;;5089929;27;45502;-84
2021/09/25 05:18:08;;;;;;;;;21.67;18.33;;;;;;;;5089812;27;45339;-83
2021/09/25 05:20:33;;;;;;;;;19.33;17.67;;;;;;;;5089787;27;45592;-83
2021/09/25 05:22:58;;;;;;;;;27.33;21.67;;;;;;;;5094743;27;45557;-84
2021/09/25 05:25:23;;;;;;;;;21.33;18.67;;;;;;;;5095713;27;45426;-83
2021/09/25 05:27:49;;;;;;;;;22.00;19.33;;;;;;;;5092251;27;45768;-84
2021/09/25 05:30:14;;;;;;;;;21.00;21.00;;;;;;;;5092441;27;45822;-83
2021/09/25 05:32:39;;;;;;;;;21.00;19.25;;;;;;;;5089841;27;46052;-83
2021/09/25 05:35:05;;;;;;;;;25.67;21.00;;;;;;;;5089279;27;45628;-83
2021/09/25 05:37:30;;;;;;;;;20.00;19.25;;;;;;;;5096458;27;45550;-83
2021/09/25 05:39:55;;;;;;;;;21.00;20.00;;;;;;;;5092747;27;45411;-83
2021/09/25 05:42:24;;;;;;;;;18.67;16.67;;;;;;;;5092775;27;47325;-84
2021/09/25 05:44:50;;;;;;;;;20.00;17.25;;;;;;;;5090659;27;45522;-84
2021/09/25 05:47:15;;;;;;;;;23.50;20.00;;;;;;;;5090816;27;45595;-83
2021/09/25 05:49:42;;;;;;;;;22.25;19.25;;;;;;;;5096899;27;45484;-84
2021/09/25 05:52:09;;;;;;;;;21.75;18.50;;;;;;;;5090615;27;48403;-83
2021/09/25 05:54:34;;;;;;;;;19.25;17.50;;;;;;;;5096566;27;46032;-84
2021/09/25 05:56:59;;;;;;;;;23.50;20.25;;;;;;;;5094211;27;45356;-84
2021/09/25 05:59:25;;;;;;;;;23.67;19.00;;;;;;;;5104587;27;45633;-83
2021/09/25 06:01:50;;;;;;;;;20.33;20.33;;;;;;;;5091985;27;45966;-84
2021/09/25 06:04:15;;;;;;;;;25.00;21.33;;;;;;;;5092909;27;45568;-84
2021/09/25 06:06:40;;;;;;;;;22.25;18.25;;;;;;;;5096246;27;45508;-84
2021/09/25 06:09:06;;;;;;;;;23.00;19.33;;;;;;;;5093046;27;45399;-84
2021/09/25 06:11:31;;;;;;;;;22.00;20.50;;;;;;;;5089135;27;46081;-83
2021/09/25 06:13:56;;;;;;;;;20.33;19.00;;;;;;;;5096113;27;45280;-84
2021/09/25 06:16:22;;;;;;;;;19.50;18.75;;;;;;;;5092243;27;45918;-84
2021/09/25 06:18:47;;;;;;;;;30.00;21.67;;;;;;;;5097394;27;45456;-84
2021/09/25 06:21:12;;;;;;;;;27.00;23.00;;;;;;;;5096287;27;45998;-84
2021/09/25 06:23:38;;;;;;;;;23.75;22.25;;;;;;;;5093566;27;45691;-84
2021/09/25 06:26:04;;;;;;;;;22.67;19.00;;;;;;;;5092190;27;45564;-84
2021/09/25 06:28:29;;;;;;;;;25.25;20.75;;;;;;;;5090477;27;45874;-84
2021/09/25 06:30:54;;;;;;;;;21.75;18.75;;;;;;;;5089057;27;46069;-84
2021/09/25 06:33:20;;;;;;;;;21.33;17.00;;;;;;;;5092834;27;45576;-84
2021/09/25 06:35:46;;;;;;;;;24.33;22.00;;;;;;;;5094153;27;45403;-83
2021/09/25 06:38:11;;;;;;;;;20.75;20.25;;;;;;;;5092984;27;45509;-83
2021/09/25 06:40:36;;;;;;;;;25.33;20.33;;;;;;;;5094352;27;45544;-83
2021/09/25 06:43:03;;;;;;;;;22.75;19.75;;;;;;;;5091719;27;45809;-84
2021/09/25 06:45:32;;;;;;;;;22.25;19.75;;;;;;;;5093516;27;46023;-83
2021/09/25 06:47:57;;;;;;;;;21.00;19.25;;;;;;;;5090361;27;45697;-83
2021/09/25 06:50:23;;;;;;;;;23.50;18.00;;;;;;;;5092426;27;46382;-84
2021/09/25 06:52:48;;;;;;;;;32.75;24.50;;;;;;;;5092070;27;45751;-84
2021/09/25 06:55:13;;;;;;;;;25.33;21.33;;;;;;;;5103719;27;45568;-84
2021/09/25 06:57:38;;;;;;;;;22.33;20.33;;;;;;;;5084116;27;45484;-83
2021/09/25 07:00:04;;;;;;;;;23.00;20.00;;;;;;;;5079657;27;45939;-84
2021/09/25 07:02:29;;;;;;;;;23.25;21.50;;;;;;;;5091049;27;45515;-83
2021/09/25 07:04:54;;;;;;;;;20.33;20.00;;;;;;;;5093514;27;45748;-84
2021/09/25 07:07:19;;;;;;;;;22.67;21.67;;;;;;;;5094905;27;45497;-82
2021/09/25 07:09:45;;;;;;;;;27.33;22.00;;;;;;;;5094721;27;47470;-84
2021/09/25 07:12:10;;;;;;;;;23.50;20.25;;;;;;;;5095907;27;45689;-84
2021/09/25 07:14:36;;;;;;;;;22.50;17.75;;;;;;;;5092545;27;45485;-83
2021/09/25 07:17:01;;;;;;;;;24.75;23.25;;;;;;;;5096600;27;45734;-83
2021/09/25 07:19:26;;;;;;;;;27.25;23.00;;;;;;;;5107657;27;46988;-83
2021/09/25 07:21:51;;;;;;;;;21.00;18.33;;;;;;;;5096248;27;45382;-84
2021/09/25 07:24:17;;;;;;;;;26.00;22.00;;;;;;;;5097521;27;45804;-84
2021/09/25 07:26:42;;;;;;;;;22.75;19.00;;;;;;;;5093592;27;45716;-84
2021/09/25 07:29:07;;;;;;;;;21.75;18.75;;;;;;;;5092227;27;48406;-84
2021/09/25 07:31:32;;;;;;;;;36.67;29.67;;;;;;;;5093746;27;45323;-84
2021/09/25 07:33:58;;;;;;;;;37.67;27.33;;;;;;;;5089508;27;45848;-84
2021/09/25 07:36:24;;;;;;;;;29.00;26.00;;;;;;;;5095735;27;45376;-84
2021/09/25 07:38:49;;;;;;;;;27.75;25.75;;;;;;;;5095274;27;46519;-84
2021/09/25 07:41:14;;;;;;;;;30.75;23.25;;;;;;;;5093394;27;45504;-83
2021/09/25 07:43:40;;;;;;;;;39.33;27.67;;;;;;;;5097416;27;45295;-85
2021/09/25 07:46:05;;;;;;;;;30.33;25.67;;;;;;;;5099375;27;45806;-84
2021/09/25 07:48:30;;;;;;;;;31.00;27.33;;;;;;;;5104910;27;47333;-85
2021/09/25 07:50:55;;;;;;;;;33.00;31.00;;;;;;;;5091513;27;45431;-83
2021/09/25 07:53:21;;;;;;;;;32.33;28.00;;;;;;;;5085813;27;45616;-84
2021/09/25 07:55:46;;;;;;;;;31.33;25.00;;;;;;;;5095385;27;45486;-85
2021/09/25 07:58:11;;;;;;;;;31.25;24.75;;;;;;;;5094218;27;45553;-84
2021/09/25 08:00:39;;;;;;;;;33.00;28.33;;;;;;;;5091536;27;45471;-84
2021/09/25 08:03:04;;;;;;;;;32.25;27.75;;;;;;;;5096722;27;45465;-85
2021/09/25 08:05:29;;;;;;;;;35.67;31.33;;;;;;;;5092050;27;46693;-85
2021/09/25 08:07:54;;;;;;;;;34.00;28.67;;;;;;;;5107922;27;47294;-84
2021/09/25 08:10:19;;;;;;;;;24.67;24.00;;;;;;;;5096360;27;45581;-84
2021/09/25 08:12:46;;;;;;;;;30.75;29.75;;;;;;;;5083289;27;45563;-71
2021/09/25 08:15:12;;;;;;;;;37.25;32.25;;;;;;;;5091393;27;45746;-74
2021/09/25 08:17:38;;;;;;;;;38.50;31.75;;;;;;;;5079474;27;46195;-74
2021/09/25 08:20:06;;;;;;;;;38.00;31.50;;;;;;;;5088687;27;45524;-74
2021/09/25 08:22:31;;;;;;;;;39.25;33.00;;;;;;;;5089740;27;45868;-74
2021/09/25 08:24:56;;;;;;;;;33.50;29.75;;;;;;;;5090081;27;45592;-75
2021/09/25 08:27:21;;;;;;;;;37.33;32.67;;;;;;;;5088365;27;45479;-74
2021/09/25 08:29:47;;;;;;;;;39.67;32.67;;;;;;;;5088479;27;45908;-74
2021/09/25 08:32:12;;;;;;;;;35.67;28.00;;;;;;;;5084016;27;45745;-74
2021/09/25 08:34:37;;;;;;;;;34.67;31.33;;;;;;;;5091891;27;45522;-74
2021/09/25 08:37:05;;;;;;;;;33.67;28.67;;;;;;;;5082740;27;46132;-74
2021/09/25 08:39:30;;;;;;;;;39.25;35.00;;;;;;;;5084002;27;47016;-74
2021/09/25 08:41:55;;;;;;;;;42.67;34.33;;;;;;;;5088712;27;45824;-73
2021/09/25 08:44:21;;;;;;;;;36.00;30.75;;;;;;;;5084357;27;45699;-74
2021/09/25 08:46:47;;;;;;;;;33.75;30.25;;;;;;;;5091040;27;45938;-74
2021/09/25 08:49:12;;;;;;;;;43.25;34.25;;;;;;;;5082936;27;45482;-75
2021/09/25 08:51:38;;;;;;;;;37.50;30.50;;;;;;;;5078055;27;45790;-74
2021/09/25 08:54:03;;;;;;;;;36.33;29.67;;;;;;;;5092689;27;45360;-74
2021/09/25 08:56:29;;;;;;;;;37.25;30.75;;;;;;;;5092964;27;46229;-74
2021/09/25 08:58:55;;;;;;;;;38.00;29.75;;;;;;;;5087474;27;45404;-74
2021/09/25 09:01:22;;;;;;;;;41.75;33.75;;;;;;;;5095836;27;45342;-74
2021/09/25 09:03:51;;;;;;;;;37.50;33.00;;;;;;;;5094639;27;48807;-74
2021/09/25 09:06:23;;;;;;;;;40.75;33.00;;;;;;;;5094781;27;47131;-74
2021/09/25 09:08:50;;;;;;;;;42.75;33.75;;;;;;;;5093773;27;46021;-74
2021/09/25 09:11:17;;;;;;;;;44.50;33.00;;;;;;;;5092410;27;45421;-73
2021/09/25 09:13:42;;;;;;;;;40.00;32.50;;;;;;;;5097952;27;45384;-74
2021/09/25 09:16:08;;;;;;;;;35.00;31.50;;;;;;;;5094575;27;45498;-74
2021/09/25 09:18:35;;;;;;;;;42.25;34.00;;;;;;;;5094463;27;45494;-74
2021/09/25 09:21:03;;;;;;;;;36.75;30.50;;;;;;;;5094778;27;45606;-74
2021/09/25 09:23:29;;;;;;;;;39.25;33.75;;;;;;;;5089653;27;45431;-74
2021/09/25 09:25:54;;;;;;;;;44.00;35.25;;;;;;;;5094437;27;45566;-74
2021/09/25 09:28:24;;;;;;;;;39.75;31.25;;;;;;;;5091555;27;45531;-74
2021/09/25 09:30:50;;;;;;;;;39.50;34.00;;;;;;;;5091324;27;45690;-74
2021/09/25 09:33:35;;;;;;;;;42.75;35.25;;;;;;;;5091409;27;45537;-73
2021/09/25 09:36:21;;;;;;;;;40.75;34.25;;;;;;;;5090282;27;47428;-74
2021/09/25 09:38:58;;;;;;;;;37.75;32.25;;;;;;;;5088507;27;45972;-74
2021/09/25 09:41:35;;;;;;;;;43.75;35.00;;;;;;;;5088745;27;45802;-74
2021/09/25 09:44:11;;;;;;;;;49.25;36.00;;;;;;;;5091959;27;45680;-74
2021/09/25 09:46:44;;;;;;;;;44.00;34.50;;;;;;;;5091817;27;45455;-73
2021/09/25 09:49:14;;;;;;;;;38.00;30.00;;;;;;;;5094517;27;45448;-74
2021/09/25 09:51:47;;;;;;;;;35.75;32.50;;;;;;;;5102820;27;45636;-75
2021/09/25 09:54:21;;;;;;;;;34.75;31.25;;;;;;;;5088097;27;45704;-74
2021/09/25 09:56:47;;;;;;;;;34.25;29.25;;;;;;;;5089836;27;45998;-73
2021/09/25 09:59:13;;;;;;;;;35.25;32.75;;;;;;;;5102176;27;45405;-74
2021/09/25 10:01:39;;;;;;;;;34.50;30.75;;;;;;;;5101578;27;45514;-74
2021/09/25 10:04:06;;;;;;;;;33.25;30.25;;;;;;;;5097151;27;45592;-74
2021/09/25 10:06:33;;;;;;;;;31.50;29.00;;;;;;;;5095265;27;46197;-74
2021/09/25 10:09:00;;;;;;;;;23.75;21.00;;;;;;;;5097493;27;45886;-74
2021/09/25 10:11:25;;;;;;;;;28.75;25.00;;;;;;;;5090384;27;45459;-74
2021/09/25 10:13:51;;;;;;;;;28.75;28.00;;;;;;;;5101319;27;45427;-74
2021/09/25 10:16:16;;;;;;;;;29.50;23.25;;;;;;;;5098348;27;45957;-75
2021/09/25 10:18:42;;;;;;;;;28.75;25.50;;;;;;;;5097279;27;45533;-74
2021/09/25 10:21:09;;;;;;;;;26.00;23.00;;;;;;;;5097102;27;45460;-74
2021/09/25 10:23:36;;;;;;;;;30.50;28.00;;;;;;;;5092990;27;45711;-74
2021/09/25 10:26:01;;;;;;;;;31.00;25.00;;;;;;;;5097921;27;46177;-74
2021/09/25 10:28:28;;;;;;;;;26.25;23.00;;;;;;;;5099301;27;45408;-74
2021/09/25 10:30:53;;;;;;;;;24.00;21.00;;;;;;;;5093612;27;45796;-74
2021/09/25 10:33:19;;;;;;;;;27.25;22.25;;;;;;;;5093835;27;45614;-74
2021/09/25 10:35:44;;;;;;;;;24.00;21.00;;;;;;;;5093494;27;45456;-74
2021/09/25 10:38:10;;;;;;;;;19.75;14.25;;;;;;;;5093756;27;48535;-76
2021/09/25 10:40:37;;;;;;;;;20.75;20.00;;;;;;;;5098022;27;45613;-74
2021/09/25 10:43:14;;;;;;;;;24.50;19.50;;;;;;;;5095200;27;45554;-74
2021/09/25 10:45:39;;;;;;;;;24.75;20.50;;;;;;;;5101140;27;46473;-75
2021/09/25 10:48:23;;;;;;;;;18.00;18.00;;;;;;;;5095752;27;45608;-74
2021/09/25 10:50:51;;;;;;;;;20.75;17.50;;;;;;;;5094423;27;45579;-74
2021/09/25 10:53:18;;;;;;;;;19.50;16.75;;;;;;;;5094417;27;45563;-74
2021/09/25 10:55:44;;;;;;;;;18.25;16.25;;;;;;;;5099460;27;46186;-75
2021/09/25 10:58:25;;;;;;;;;15.00;14.00;;;;;;;;5090771;27;45821;-74
2021/09/25 11:00:54;;;;;;;;;19.75;18.25;;;;;;;;5093258;27;45998;-74
2021/09/25 11:03:39;;;;;;;;;17.75;16.75;;;;;;;;5096628;27;45542;-74
2021/09/25 11:06:05;;;;;;;;;20.75;20.75;;;;;;;;5086366;27;45626;-74
2021/09/25 11:08:34;;;;;;;;;21.25;18.25;;;;;;;;5092536;27;45404;-75
2021/09/25 11:11:06;;;;;;;;;17.50;15.00;;;;;;;;5097703;27;45309;-74
2021/09/25 11:13:50;;;;;;;;;15.50;15.00;;;;;;;;5102413;27;45397;-75
2021/09/25 11:16:15;;;;;;;;;16.50;16.50;;;;;;;;5095774;27;46802;-74
2021/09/25 11:18:50;;;;;;;;;15.33;15.33;;;;;;;;5095404;27;45556;-74
2021/09/25 11:21:16;;;;;;;;;19.25;15.75;;;;;;;;5089982;27;45378;-74
2021/09/25 11:23:45;;;;;;;;;16.75;15.25;;;;;;;;5094421;27;45383;-74
2021/09/25 11:26:10;;;;;;;;;14.75;13.75;;;;;;;;5095094;27;46736;-74
2021/09/25 11:28:35;;;;;;;;;15.75;14.50;;;;;;;;5099826;27;45486;-74
2021/09/25 11:31:07;;;;;;;;;14.75;14.75;;;;;;;;5095933;27;45428;-75
2021/09/25 11:33:35;;;;;;;;;15.50;12.75;;;;;;;;5097751;27;45920;-75
2021/09/25 11:36:05;;;;;;;;;15.00;13.50;;;;;;;;5089167;27;46420;-74
2021/09/25 11:38:30;;;;;;;;;12.25;11.25;;;;;;;;5092397;27;45611;-76
2021/09/25 11:40:56;;;;;;;;;14.00;13.00;;;;;;;;5098573;27;45566;-76
2021/09/25 11:43:22;;;;;;;;;17.33;14.33;;;;;;;;5092638;27;45671;-76
2021/09/25 11:45:48;;;;;;;;;14.75;13.50;;;;;;;;5097135;27;46669;-77
2021/09/25 11:48:17;;;;;;;;;17.25;16.00;;;;;;;;5096114;27;45696;-77
2021/09/25 11:50:44;;;;;;;;;14.25;14.00;;;;;;;;5097321;27;45924;-78
2021/09/25 11:53:10;;;;;;;;;15.50;15.50;;;;;;;;5094871;27;45421;-76
2021/09/25 11:55:36;;;;;;;;;16.25;12.75;;;;;;;;5097908;27;48186;-76
2021/09/25 11:58:05;;;;;;;;;16.00;14.25;;;;;;;;5095195;27;45512;-76
2021/09/25 12:00:32;;;;;;;;;16.25;15.25;;;;;;;;5091729;27;46591;-77
2021/09/25 12:02:58;;;;;;;;;14.25;12.25;;;;;;;;5082046;27;45534;-77
2021/09/25 12:05:26;;;;;;;;;15.75;14.50;;;;;;;;5094637;27;45571;-78
2021/09/25 12:07:52;;;;;;;;;16.50;12.25;;;;;;;;5095953;27;45604;-78
2021/09/25 12:10:18;;;;;;;;;16.50;15.75;;;;;;;;5095244;27;45793;-77
2021/09/25 12:12:43;;;;;;;;;17.00;16.00;;;;;;;;5094744;27;45352;-77
2021/09/25 12:15:09;;;;;;;;;15.00;15.00;;;;;;;;5092068;27;45430;-77
2021/09/25 12:17:34;;;;;;;;;16.75;13.75;;;;;;;;5092210;27;45423;-77
2021/09/25 12:20:20;;;;;;;;;14.33;13.33;;;;;;;;5096728;27;45402;-78
2021/09/25 12:22:46;;;;;;;;;12.00;11.00;;;;;;;;5098188;27;45323;-77
2021/09/25 12:25:12;;;;;;;;;14.50;13.25;;;;;;;;5098039;27;45461;-79
2021/09/25 12:27:42;;;;;;;;;12.25;11.75;;;;;;;;5082593;27;45863;-76
2021/09/25 12:30:09;;;;;;;;;15.25;12.25;;;;;;;;5084709;27;45442;-75
2021/09/25 12:32:34;;;;;;;;;14.00;13.00;;;;;;;;5089528;27;45775;-74
2021/09/25 12:34:59;;;;;;;;;15.50;14.50;;;;;;;;5081677;27;46310;-73
2021/09/25 12:37:24;;;;;;;;;11.67;11.67;;;;;;;;5098025;27;45511;-75
2021/09/25 12:39:50;;;;;;;;;13.00;13.00;;;;;;;;5089418;27;45682;-78
2021/09/25 12:42:26;;;;;;;;;12.25;12.25;;;;;;;;5086072;27;45955;-75
2021/09/25 12:44:54;;;;;;;;;17.00;14.00;;;;;;;;5067390;27;46962;-75
2021/09/25 12:47:28;;;;;;;;;15.25;13.25;;;;;;;;5090663;27;45427;-75
2021/09/25 12:50:10;;;;;;;;;15.50;13.25;;;;;;;;5086968;27;45604;-75
2021/09/25 12:52:35;;;;;;;;;15.75;13.50;;;;;;;;5085621;27;46911;-75
2021/09/25 12:55:06;;;;;;;;;14.50;12.00;;;;;;;;5079011;27;46487;-75
2021/09/25 12:57:31;;;;;;;;;15.00;13.50;;;;;;;;5085088;27;45607;-73
2021/09/25 12:59:58;;;;;;;;;12.33;10.33;;;;;;;;5087099;27;45527;-74
2021/09/25 13:02:23;;;;;;;;;13.50;13.50;;;;;;;;5088348;27;51685;-73
2021/09/25 13:04:53;;;;;;;;;13.50;11.25;;;;;;;;5090167;27;45626;-74
2021/09/25 13:07:25;;;;;;;;;11.50;11.50;;;;;;;;5086970;27;45957;-75
2021/09/25 13:09:55;;;;;;;;;13.00;12.00;;;;;;;;5088180;27;45550;-74
2021/09/25 13:12:27;;;;;;;;;14.50;11.75;;;;;;;;5086943;27;52020;-75
2021/09/25 13:15:01;;;;;;;;;16.75;13.25;;;;;;;;5086565;27;45486;-74
2021/09/25 13:17:27;;;;;;;;;9.50;8.50;;;;;;;;5087845;27;45921;-73
2021/09/25 13:19:52;;;;;;;;;14.25;12.25;;;;;;;;5091798;27;45382;-74
2021/09/25 13:22:17;;;;;;;;;13.33;12.00;;;;;;;;5087580;27;45802;-74
2021/09/25 13:24:42;;;;;;;;;15.00;15.00;;;;;;;;5086914;27;46020;-74
2021/09/25 13:27:08;;;;;;;;;16.00;14.33;;;;;;;;5087275;27;45422;-77
2021/09/25 13:29:33;;;;;;;;;11.50;6.00;;;;;;;;5087529;27;45608;-75
2021/09/25 13:31:59;;;;;;;;;15.25;15.25;;;;;;;;5088418;27;45496;-75
2021/09/25 13:34:24;;;;;;;;;13.00;11.50;;;;;;;;5089997;27;47081;-74
2021/09/25 13:36:50;;;;;;;;;13.00;13.00;;;;;;;;5086687;27;45966;-73
2021/09/25 13:39:16;;;;;;;;;18.00;12.75;;;;;;;;5082791;27;46561;-74
2021/09/25 13:41:41;;;;;;;;;10.25;10.25;;;;;;;;5087963;27;45454;-73
2021/09/25 13:44:06;;;;;;;;;12.00;10.67;;;;;;;;5092809;27;47228;-73
2021/09/25 13:46:31;;;;;;;;;10.00;10.00;;;;;;;;5094721;27;45450;-73
2021/09/25 13:48:56;;;;;;;;;10.00;9.00;;;;;;;;5085581;27;45450;-73
2021/09/25 13:51:22;;;;;;;;;10.67;10.00;;;;;;;;5092658;27;45471;-73
2021/09/25 13:53:47;;;;;;;;;14.00;12.00;;;;;;;;5091398;27;45468;-73
2021/09/25 13:56:12;;;;;;;;;13.33;13.33;;;;;;;;5090868;27;46135;-73
2021/09/25 13:58:37;;;;;;;;;13.00;13.00;;;;;;;;5092634;27;45656;-72
2021/09/25 14:01:04;;;;;;;;;11.75;11.75;;;;;;;;5085947;27;45514;-72
2021/09/25 14:03:29;;;;;;;;;14.25;11.00;;;;;;;;5075149;27;45621;-73
2021/09/25 14:05:54;;;;;;;;;14.00;14.00;;;;;;;;5102784;27;45498;-73
2021/09/25 14:08:20;;;;;;;;;12.00;10.67;;;;;;;;5092106;27;45466;-73
2021/09/25 14:10:45;;;;;;;;;11.00;11.00;;;;;;;;5090083;27;45482;-74